DLH6TR EDDF-EHAM
Flight info
| Callsign | DLH6TR |
|---|---|
| Flight time | 0h 51m |
| Altitude | 24000 |
| Route | MARUN8M/25C MARUN Y152 ARPEG Z850 ABILU DCT NORKU |
| Aircraft | A321/M-SDE2E3FGIJ1LORWXYZ/HB1 |
Departure
| Time | 2026-05-06 18:02 |
|---|---|
| Airport | Frankfurt Main Airport (EDDF) |
Arrival
| Time | 2026-05-06 18:54 |
|---|---|
| Airport | Amsterdam Airport Schiphol (EHAM) |
| Time | Latitude | Longitude | Altitude | Speed | Heading |
|---|---|---|---|---|---|
| 2026-05-06 17:29 | 50.04830 | 8.58836 | 365 ft | 0 kts | 339° |
| 2026-05-06 17:55 | 50.04814 | 8.58846 | 369 ft | 4 kts | 339° |
| 2026-05-06 17:55 | 50.04788 | 8.58861 | 367 ft | 4 kts | 339° |
| 2026-05-06 17:55 | 50.04763 | 8.58875 | 369 ft | 4 kts | 339° |
| 2026-05-06 17:56 | 50.04757 | 8.58879 | 368 ft | 0 kts | 339° |
| 2026-05-06 17:59 | 50.04758 | 8.58878 | 368 ft | 1 kts | 338° |
| 2026-05-06 17:59 | 50.04758 | 8.58869 | 368 ft | 1 kts | 283° |
| 2026-05-06 17:59 | 50.04755 | 8.58865 | 368 ft | 1 kts | 248° |
| 2026-05-06 17:59 | 50.04743 | 8.58820 | 368 ft | 8 kts | 246° |
| 2026-05-06 18:00 | 50.04698 | 8.58769 | 370 ft | 8 kts | 189° |
| 2026-05-06 18:00 | 50.04642 | 8.58759 | 370 ft | 8 kts | 187° |
| 2026-05-06 18:00 | 50.04637 | 8.58758 | 370 ft | 0 kts | 187° |
| 2026-05-06 18:00 | 50.04615 | 8.58751 | 371 ft | 6 kts | 197° |
| 2026-05-06 18:01 | 50.04568 | 8.58695 | 371 ft | 11 kts | 220° |
| 2026-05-06 18:01 | 50.04507 | 8.58625 | 371 ft | 7 kts | 217° |
| 2026-05-06 18:01 | 50.04487 | 8.58586 | 370 ft | 1 kts | 248° |
| 2026-05-06 18:01 | 50.04485 | 8.58580 | 370 ft | 1 kts | 251° |
| 2026-05-06 18:02 | 50.04464 | 8.58484 | 370 ft | 35 kts | 250° |
| 2026-05-06 18:02 | 50.04281 | 8.57721 | 364 ft | 112 kts | 250° |
| 2026-05-06 18:02 | 50.03935 | 8.56275 | 385 ft | 167 kts | 248° |
| 2026-05-06 18:02 | 50.03546 | 8.54602 | 1162 ft | 162 kts | 253° |
| 2026-05-06 18:03 | 50.03158 | 8.52968 | 2008 ft | 161 kts | 252° |
| 2026-05-06 18:03 | 50.02739 | 8.51357 | 2686 ft | 163 kts | 245° |
| 2026-05-06 18:03 | 50.02016 | 8.49984 | 3307 ft | 168 kts | 218° |
| 2026-05-06 18:03 | 50.00917 | 8.49264 | 3805 ft | 180 kts | 201° |
| 2026-05-06 18:04 | 49.99639 | 8.48663 | 4126 ft | 200 kts | 199° |
| 2026-05-06 18:04 | 49.98276 | 8.48047 | 4715 ft | 207 kts | 199° |
| 2026-05-06 18:04 | 49.96891 | 8.47430 | 5512 ft | 207 kts | 199° |
| 2026-05-06 18:04 | 49.95493 | 8.46805 | 6203 ft | 216 kts | 199° |
| 2026-05-06 18:05 | 49.93976 | 8.46107 | 6567 ft | 237 kts | 199° |
| 2026-05-06 18:05 | 49.92373 | 8.45359 | 7200 ft | 244 kts | 201° |
| 2026-05-06 18:05 | 49.90941 | 8.43987 | 7906 ft | 245 kts | 230° |
| 2026-05-06 18:05 | 49.90179 | 8.41649 | 8625 ft | 248 kts | 259° |
| 2026-05-06 18:06 | 49.90293 | 8.38980 | 9350 ft | 255 kts | 288° |
| 2026-05-06 18:06 | 49.91318 | 8.36713 | 10022 ft | 265 kts | 320° |
| 2026-05-06 18:06 | 49.93003 | 8.35354 | 10424 ft | 285 kts | 334° |
| 2026-05-06 18:06 | 49.94905 | 8.34115 | 10612 ft | 308 kts | 335° |
| 2026-05-06 18:07 | 49.96251 | 8.33248 | 10712 ft | 324 kts | 335° |
| 2026-05-06 18:07 | 49.98379 | 8.31879 | 11086 ft | 336 kts | 335° |
| 2026-05-06 18:07 | 50.00559 | 8.30472 | 11696 ft | 341 kts | 335° |
| 2026-05-06 18:07 | 50.02795 | 8.29191 | 12345 ft | 347 kts | 344° |
| 2026-05-06 18:08 | 50.05200 | 8.28724 | 12982 ft | 353 kts | 359° |
| 2026-05-06 18:08 | 50.07637 | 8.29241 | 13622 ft | 359 kts | 14° |
| 2026-05-06 18:08 | 50.10084 | 8.30505 | 14229 ft | 362 kts | 18° |
| 2026-05-06 18:08 | 50.12483 | 8.31777 | 14824 ft | 365 kts | 17° |
| 2026-05-06 18:09 | 50.14904 | 8.33052 | 15384 ft | 369 kts | 17° |
| 2026-05-06 18:09 | 50.17347 | 8.34332 | 15983 ft | 372 kts | 17° |
| 2026-05-06 18:09 | 50.19817 | 8.35621 | 16572 ft | 375 kts | 17° |
| 2026-05-06 18:09 | 50.22300 | 8.36919 | 17161 ft | 378 kts | 17° |
| 2026-05-06 18:10 | 50.24775 | 8.38220 | 17739 ft | 381 kts | 17° |
| 2026-05-06 18:10 | 50.27333 | 8.39569 | 18281 ft | 384 kts | 17° |
| 2026-05-06 18:10 | 50.29841 | 8.40895 | 18780 ft | 387 kts | 17° |
| 2026-05-06 18:10 | 50.32396 | 8.42264 | 19271 ft | 390 kts | 18° |
| 2026-05-06 18:11 | 50.34966 | 8.43663 | 19777 ft | 393 kts | 17° |
| 2026-05-06 18:11 | 50.37655 | 8.44676 | 20223 ft | 393 kts | 2° |
| 2026-05-06 18:11 | 50.40337 | 8.44473 | 20671 ft | 392 kts | 349° |
| 2026-05-06 18:11 | 50.43052 | 8.43872 | 21148 ft | 395 kts | 349° |
| 2026-05-06 18:12 | 50.45783 | 8.43258 | 21615 ft | 398 kts | 349° |
| 2026-05-06 18:12 | 50.48528 | 8.42641 | 22080 ft | 400 kts | 349° |
| 2026-05-06 18:12 | 50.51298 | 8.42020 | 22544 ft | 403 kts | 349° |
| 2026-05-06 18:12 | 50.54084 | 8.41399 | 23008 ft | 406 kts | 349° |
| 2026-05-06 18:13 | 50.56889 | 8.40774 | 23441 ft | 408 kts | 349° |
| 2026-05-06 18:13 | 50.59715 | 8.40141 | 23734 ft | 413 kts | 349° |
| 2026-05-06 18:13 | 50.62538 | 8.39505 | 23808 ft | 403 kts | 349° |
| 2026-05-06 18:13 | 50.65288 | 8.38887 | 23813 ft | 396 kts | 349° |
| 2026-05-06 18:14 | 50.68010 | 8.38271 | 23811 ft | 394 kts | 349° |
| 2026-05-06 18:14 | 50.70720 | 8.37657 | 23812 ft | 394 kts | 349° |
| 2026-05-06 18:14 | 50.73463 | 8.37033 | 23815 ft | 405 kts | 349° |
| 2026-05-06 18:14 | 50.76301 | 8.36384 | 23814 ft | 416 kts | 349° |
| 2026-05-06 18:15 | 50.79131 | 8.35743 | 23818 ft | 414 kts | 349° |
| 2026-05-06 18:15 | 50.82028 | 8.35088 | 23816 ft | 424 kts | 349° |
| 2026-05-06 18:15 | 50.84960 | 8.34422 | 23820 ft | 428 kts | 349° |
| 2026-05-06 18:15 | 50.87912 | 8.33753 | 23819 ft | 429 kts | 349° |
| 2026-05-06 18:16 | 50.90869 | 8.33087 | 23824 ft | 429 kts | 349° |
| 2026-05-06 18:16 | 50.93826 | 8.32423 | 23824 ft | 429 kts | 349° |
| 2026-05-06 18:16 | 50.96779 | 8.31756 | 23832 ft | 429 kts | 349° |
| 2026-05-06 18:16 | 50.99660 | 8.30625 | 23830 ft | 424 kts | 335° |
| 2026-05-06 18:17 | 51.02227 | 8.28390 | 23840 ft | 420 kts | 323° |
| 2026-05-06 18:17 | 51.04664 | 8.25813 | 23850 ft | 421 kts | 324° |
| 2026-05-06 18:17 | 51.07092 | 8.23231 | 23844 ft | 421 kts | 324° |
| 2026-05-06 18:17 | 51.09528 | 8.20637 | 23843 ft | 421 kts | 324° |
| 2026-05-06 18:18 | 51.11963 | 8.18040 | 23843 ft | 421 kts | 324° |
| 2026-05-06 18:18 | 51.14397 | 8.15445 | 23851 ft | 421 kts | 324° |
| 2026-05-06 18:18 | 51.16824 | 8.12853 | 23847 ft | 421 kts | 324° |
| 2026-05-06 18:18 | 51.19253 | 8.10256 | 23846 ft | 420 kts | 324° |
| 2026-05-06 18:19 | 51.21683 | 8.07653 | 23839 ft | 421 kts | 324° |
| 2026-05-06 18:19 | 51.24111 | 8.05049 | 23833 ft | 421 kts | 324° |
| 2026-05-06 18:19 | 51.26538 | 8.02440 | 23842 ft | 421 kts | 324° |
| 2026-05-06 18:19 | 51.28967 | 7.99826 | 23840 ft | 421 kts | 324° |
| 2026-05-06 18:20 | 51.31397 | 7.97205 | 23845 ft | 421 kts | 324° |
| 2026-05-06 18:20 | 51.33827 | 7.94584 | 23844 ft | 422 kts | 324° |
| 2026-05-06 18:20 | 51.36256 | 7.91963 | 23845 ft | 422 kts | 324° |
| 2026-05-06 18:20 | 51.38688 | 7.89334 | 23845 ft | 422 kts | 324° |
| 2026-05-06 18:21 | 51.41122 | 7.86701 | 23849 ft | 422 kts | 324° |
| 2026-05-06 18:21 | 51.43553 | 7.84064 | 23849 ft | 422 kts | 324° |
| 2026-05-06 18:21 | 51.45985 | 7.81425 | 23850 ft | 422 kts | 324° |
| 2026-05-06 18:21 | 51.48422 | 7.78778 | 23850 ft | 423 kts | 324° |
| 2026-05-06 18:22 | 51.50854 | 7.76131 | 23851 ft | 423 kts | 324° |
| 2026-05-06 18:22 | 51.53287 | 7.73481 | 23851 ft | 423 kts | 324° |
| 2026-05-06 18:22 | 51.55715 | 7.70835 | 23865 ft | 422 kts | 324° |
| 2026-05-06 18:22 | 51.58147 | 7.68182 | 23881 ft | 421 kts | 324° |
| 2026-05-06 18:23 | 51.60570 | 7.65533 | 23880 ft | 420 kts | 324° |
| 2026-05-06 18:23 | 51.62983 | 7.62889 | 23882 ft | 420 kts | 324° |
| 2026-05-06 18:23 | 51.65395 | 7.60243 | 23885 ft | 419 kts | 324° |
| 2026-05-06 18:23 | 51.67802 | 7.57596 | 23888 ft | 419 kts | 324° |
| 2026-05-06 18:24 | 51.70202 | 7.54955 | 23892 ft | 419 kts | 324° |
| 2026-05-06 18:24 | 51.72607 | 7.52308 | 23886 ft | 418 kts | 324° |
| 2026-05-06 18:24 | 51.75013 | 7.49660 | 23897 ft | 418 kts | 324° |
| 2026-05-06 18:24 | 51.77396 | 7.47032 | 23899 ft | 418 kts | 324° |
| 2026-05-06 18:25 | 51.79785 | 7.44390 | 23895 ft | 418 kts | 323° |
| 2026-05-06 18:25 | 51.82216 | 7.41692 | 23907 ft | 418 kts | 324° |
| 2026-05-06 18:25 | 51.84463 | 7.39197 | 23909 ft | 418 kts | 324° |
| 2026-05-06 18:25 | 51.86862 | 7.36533 | 23910 ft | 418 kts | 324° |
| 2026-05-06 18:26 | 51.89257 | 7.33869 | 23907 ft | 418 kts | 323° |
| 2026-05-06 18:26 | 51.91650 | 7.31205 | 23907 ft | 417 kts | 323° |
| 2026-05-06 18:26 | 51.94040 | 7.28540 | 23907 ft | 417 kts | 323° |
| 2026-05-06 18:26 | 51.96431 | 7.25872 | 23907 ft | 417 kts | 324° |
| 2026-05-06 18:27 | 51.98819 | 7.23207 | 23903 ft | 417 kts | 323° |
| 2026-05-06 18:27 | 52.01205 | 7.20545 | 23900 ft | 416 kts | 323° |
| 2026-05-06 18:27 | 52.03592 | 7.17879 | 23897 ft | 416 kts | 323° |
| 2026-05-06 18:27 | 52.05976 | 7.15215 | 23895 ft | 416 kts | 323° |
| 2026-05-06 18:28 | 52.08363 | 7.12538 | 23892 ft | 416 kts | 323° |
| 2026-05-06 18:28 | 52.10745 | 7.09856 | 23889 ft | 417 kts | 324° |
| 2026-05-06 18:28 | 52.13130 | 7.07167 | 23890 ft | 417 kts | 323° |
| 2026-05-06 18:28 | 52.15517 | 7.04473 | 23889 ft | 418 kts | 323° |
| 2026-05-06 18:29 | 52.17902 | 7.01777 | 23895 ft | 418 kts | 323° |
| 2026-05-06 18:29 | 52.20285 | 6.99058 | 23894 ft | 418 kts | 321° |
| 2026-05-06 18:29 | 52.22431 | 6.95886 | 23894 ft | 416 kts | 310° |
| 2026-05-06 18:29 | 52.24274 | 6.92258 | 23895 ft | 415 kts | 308° |
| 2026-05-06 18:30 | 52.26094 | 6.88604 | 23923 ft | 415 kts | 307° |
| 2026-05-06 18:30 | 52.27912 | 6.84957 | 23929 ft | 414 kts | 307° |
| 2026-05-06 18:30 | 52.29732 | 6.81303 | 23932 ft | 413 kts | 307° |
| 2026-05-06 18:30 | 52.31519 | 6.77714 | 23932 ft | 413 kts | 307° |
| 2026-05-06 18:31 | 52.33330 | 6.74077 | 23837 ft | 413 kts | 307° |
| 2026-05-06 18:31 | 52.35151 | 6.70419 | 22819 ft | 418 kts | 307° |
| 2026-05-06 18:31 | 52.36980 | 6.66740 | 22141 ft | 412 kts | 307° |
| 2026-05-06 18:31 | 52.38769 | 6.63139 | 21592 ft | 404 kts | 307° |
| 2026-05-06 18:32 | 52.40526 | 6.59595 | 21068 ft | 399 kts | 307° |
| 2026-05-06 18:32 | 52.42263 | 6.56073 | 20551 ft | 396 kts | 307° |
| 2026-05-06 18:32 | 52.43983 | 6.52575 | 20054 ft | 393 kts | 307° |
| 2026-05-06 18:32 | 52.45513 | 6.48893 | 19559 ft | 389 kts | 297° |
| 2026-05-06 18:33 | 52.46519 | 6.44824 | 19051 ft | 384 kts | 284° |
| 2026-05-06 18:33 | 52.46903 | 6.40511 | 18449 ft | 380 kts | 276° |
| 2026-05-06 18:33 | 52.47157 | 6.36212 | 17812 ft | 377 kts | 276° |
| 2026-05-06 18:33 | 52.47391 | 6.31948 | 17139 ft | 374 kts | 276° |
| 2026-05-06 18:34 | 52.47610 | 6.27722 | 16480 ft | 370 kts | 275° |
| 2026-05-06 18:34 | 52.47823 | 6.23531 | 15899 ft | 365 kts | 275° |
| 2026-05-06 18:34 | 52.48030 | 6.19441 | 15522 ft | 355 kts | 275° |
| 2026-05-06 18:34 | 52.48233 | 6.15470 | 15241 ft | 343 kts | 275° |
| 2026-05-06 18:35 | 52.48428 | 6.11652 | 14966 ft | 332 kts | 275° |
| 2026-05-06 18:35 | 52.48618 | 6.07928 | 14698 ft | 322 kts | 276° |
| 2026-05-06 18:35 | 52.48803 | 6.04329 | 14444 ft | 312 kts | 276° |
| 2026-05-06 18:35 | 52.48983 | 6.00824 | 14199 ft | 303 kts | 275° |
| 2026-05-06 18:36 | 52.49153 | 5.97412 | 13885 ft | 298 kts | 276° |
| 2026-05-06 18:36 | 52.49319 | 5.94047 | 13547 ft | 293 kts | 276° |
| 2026-05-06 18:36 | 52.49483 | 5.90732 | 13081 ft | 292 kts | 276° |
| 2026-05-06 18:36 | 52.49649 | 5.87409 | 12613 ft | 292 kts | 276° |
| 2026-05-06 18:37 | 52.49814 | 5.84102 | 12198 ft | 290 kts | 276° |
| 2026-05-06 18:37 | 52.49922 | 5.81932 | 11947 ft | 287 kts | 276° |
| 2026-05-06 18:37 | 52.50139 | 5.77564 | 11346 ft | 287 kts | 277° |
| 2026-05-06 18:37 | 52.50299 | 5.74322 | 10948 ft | 285 kts | 276° |
| 2026-05-06 18:38 | 52.50456 | 5.71079 | 10542 ft | 284 kts | 276° |
| 2026-05-06 18:38 | 52.50606 | 5.67880 | 10346 ft | 281 kts | 276° |
| 2026-05-06 18:38 | 52.50757 | 5.64648 | 10228 ft | 284 kts | 276° |
| 2026-05-06 18:38 | 52.50909 | 5.61417 | 10090 ft | 285 kts | 275° |
| 2026-05-06 18:39 | 52.50879 | 5.58167 | 9964 ft | 287 kts | 262° |
| 2026-05-06 18:39 | 52.50344 | 5.55006 | 9773 ft | 289 kts | 248° |
| 2026-05-06 18:39 | 52.49370 | 5.52126 | 9498 ft | 289 kts | 240° |
| 2026-05-06 18:40 | 52.47286 | 5.46489 | 9008 ft | 288 kts | 240° |
| 2026-05-06 18:40 | 52.46250 | 5.43675 | 8759 ft | 288 kts | 240° |
| 2026-05-06 18:40 | 52.45219 | 5.40871 | 8522 ft | 287 kts | 239° |
| 2026-05-06 18:40 | 52.44186 | 5.38071 | 8283 ft | 288 kts | 239° |
| 2026-05-06 18:41 | 52.43152 | 5.35277 | 8027 ft | 287 kts | 240° |
| 2026-05-06 18:41 | 52.42113 | 5.32471 | 7785 ft | 288 kts | 239° |
| 2026-05-06 18:41 | 52.41079 | 5.29674 | 7530 ft | 287 kts | 239° |
| 2026-05-06 18:41 | 52.40049 | 5.26885 | 7279 ft | 284 kts | 239° |
| 2026-05-06 18:42 | 52.39031 | 5.24137 | 7027 ft | 282 kts | 239° |
| 2026-05-06 18:42 | 52.38009 | 5.21389 | 6780 ft | 282 kts | 239° |
| 2026-05-06 18:42 | 52.36988 | 5.18642 | 6532 ft | 282 kts | 239° |
| 2026-05-06 18:42 | 52.35968 | 5.15909 | 6281 ft | 280 kts | 239° |
| 2026-05-06 18:43 | 52.34966 | 5.13225 | 6040 ft | 280 kts | 239° |
| 2026-05-06 18:43 | 52.33956 | 5.10521 | 5903 ft | 278 kts | 239° |
| 2026-05-06 18:43 | 52.32933 | 5.07821 | 5767 ft | 281 kts | 238° |
| 2026-05-06 18:43 | 52.31887 | 5.05139 | 5635 ft | 281 kts | 238° |
| 2026-05-06 18:44 | 52.30827 | 5.02448 | 5496 ft | 281 kts | 238° |
| 2026-05-06 18:44 | 52.29773 | 4.99775 | 5374 ft | 280 kts | 238° |
| 2026-05-06 18:44 | 52.28717 | 4.97110 | 5245 ft | 278 kts | 237° |
| 2026-05-06 18:44 | 52.27675 | 4.94466 | 5023 ft | 276 kts | 238° |
| 2026-05-06 18:45 | 52.26640 | 4.91856 | 4863 ft | 268 kts | 238° |
| 2026-05-06 18:45 | 52.25653 | 4.89377 | 4777 ft | 255 kts | 238° |
| 2026-05-06 18:45 | 52.24698 | 4.86993 | 4606 ft | 248 kts | 237° |
| 2026-05-06 18:45 | 52.24086 | 4.85446 | 4484 ft | 243 kts | 239° |
| 2026-05-06 18:46 | 52.22847 | 4.82327 | 4324 ft | 243 kts | 238° |
| 2026-05-06 18:46 | 52.21923 | 4.80013 | 4114 ft | 244 kts | 238° |
| 2026-05-06 18:46 | 52.20993 | 4.77683 | 3954 ft | 248 kts | 237° |
| 2026-05-06 18:46 | 52.20066 | 4.75348 | 3778 ft | 247 kts | 238° |
| 2026-05-06 18:47 | 52.19131 | 4.72996 | 3517 ft | 247 kts | 238° |
| 2026-05-06 18:47 | 52.18198 | 4.70645 | 3264 ft | 245 kts | 238° |
| 2026-05-06 18:47 | 52.17280 | 4.68331 | 2991 ft | 242 kts | 238° |
| 2026-05-06 18:47 | 52.16367 | 4.66038 | 2797 ft | 240 kts | 238° |
| 2026-05-06 18:48 | 52.15453 | 4.63753 | 2680 ft | 241 kts | 238° |
| 2026-05-06 18:48 | 52.14882 | 4.62212 | 2621 ft | 241 kts | 248° |
| 2026-05-06 18:48 | 52.14729 | 4.58717 | 2521 ft | 232 kts | 292° |
| 2026-05-06 18:48 | 52.15603 | 4.56614 | 2467 ft | 224 kts | 324° |
| 2026-05-06 18:49 | 52.16433 | 4.55623 | 2439 ft | 223 kts | 330° |
| 2026-05-06 18:49 | 52.17749 | 4.54295 | 2388 ft | 222 kts | 335° |
| 2026-05-06 18:49 | 52.19209 | 4.53739 | 2336 ft | 212 kts | 5° |
| 2026-05-06 18:49 | 52.20572 | 4.54220 | 2291 ft | 193 kts | 25° |
| 2026-05-06 18:50 | 52.21668 | 4.55363 | 2238 ft | 183 kts | 44° |
| 2026-05-06 18:50 | 52.22413 | 4.56902 | 2191 ft | 165 kts | 57° |
| 2026-05-06 18:50 | 52.22995 | 4.58402 | 2119 ft | 150 kts | 56° |
| 2026-05-06 18:50 | 52.23547 | 4.59825 | 1982 ft | 152 kts | 56° |
| 2026-05-06 18:51 | 52.24119 | 4.61302 | 1780 ft | 154 kts | 56° |
| 2026-05-06 18:51 | 52.24690 | 4.62778 | 1586 ft | 152 kts | 56° |
| 2026-05-06 18:51 | 52.25243 | 4.64210 | 1378 ft | 146 kts | 57° |
| 2026-05-06 18:51 | 52.25771 | 4.65578 | 1198 ft | 137 kts | 56° |
| 2026-05-06 18:52 | 52.26282 | 4.66906 | 997 ft | 137 kts | 56° |
| 2026-05-06 18:52 | 52.26796 | 4.68256 | 808 ft | 144 kts | 56° |
| 2026-05-06 18:52 | 52.27332 | 4.69610 | 583 ft | 146 kts | 54° |
| 2026-05-06 18:52 | 52.27889 | 4.71050 | 408 ft | 150 kts | 55° |
| 2026-05-06 18:53 | 52.28438 | 4.72507 | 223 ft | 146 kts | 56° |
| 2026-05-06 18:53 | 52.28959 | 4.73855 | 32 ft | 136 kts | 54° |
| 2026-05-06 18:53 | 52.29422 | 4.75050 | -1 ft | 110 kts | 58° |
| 2026-05-06 18:53 | 52.29738 | 4.75875 | -2 ft | 62 kts | 58° |
| 2026-05-06 18:54 | 52.29920 | 4.76349 | -4 ft | 35 kts | 57° |
| 2026-05-06 18:54 | 52.30056 | 4.76560 | -2 ft | 25 kts | 29° |
| 2026-05-06 18:54 | 52.30176 | 4.76670 | -1 ft | 14 kts | 29° |
| 2026-05-06 18:54 | 52.30250 | 4.76734 | -1 ft | 10 kts | 25° |
| 2026-05-06 18:55 | 52.30330 | 4.76731 | -1 ft | 13 kts | 331° |
| 2026-05-06 18:55 | 52.30336 | 4.76596 | -1 ft | 14 kts | 257° |
| 2026-05-06 18:55 | 52.30373 | 4.76500 | -1 ft | 11 kts | 329° |
| 2026-05-06 18:55 | 52.30442 | 4.76432 | -1 ft | 11 kts | 328° |
| 2026-05-06 18:56 | 52.30498 | 4.76371 | -1 ft | 7 kts | 309° |
| 2026-05-06 18:56 | 52.30494 | 4.76339 | -1 ft | 2 kts | 245° |
| 2026-05-06 18:56 | 52.30485 | 4.76313 | -1 ft | 2 kts | 238° |
| 2026-05-06 18:56 | 52.30477 | 4.76291 | -1 ft | 0 kts | 239° |